Country
Station

 

Weather  for  Lann Bihoue  -  France    France

  
21 °C (70 °F)
    
 
 

Current METAR for Lann Bihoue is :

LFRH 231000Z AUTO 06010KT 030V120 CAVOK 21/09 Q1028 NOSIG

 

This is a report for Lann Bihoue - France.
 
The report was made 27 minutes ago, at 10:00 UTC .
The wind was blowing at a speed of 5.1 meters per second (11.5 miles per hour) from east/northeast (060°), varying between north/northeast (030°) and east/southeast (120°).
 
The temperature was 21 °C (70 °F), with a dew-point at 9 °C (48 °F).
The atmospheric pressure was 1028 hPa (30.36 inHg).
The relative humidity was 46.2%.
 
There were no clouds below 1500 meter (5000 feet) and no cumulonimbus clouds.
 
The overall visibility was greater than 10 kilometers (6.2 miles).
 

 
 
 
 

Country :   A   B   C   D   E   F   G   H   I   J   K   L   M   N   O   P   Q   R   S   T   U   V   W   Y   Z

 

Site Info  |  Disclaimer  |  Credits  |  Privacy
Contact us  |  Add to favorites
© 2013-2018 METARs - All rights reserved